Time;durP1;ratioP1;P1;durP2;ratioP2;P2;SDS_P1;SDS_P2;PMS_P1;PMS_P2;Temp;Humidity;BMP_temperature;BMP_pressure;BME280_temperature;BME280_humidity;BME280_pressure;Samples;Min_cycle;Max_cycle;Signal;HPM_P1;HPM_P2
2022/04/14 00:00:28;;;;;;;29.27;5.80;;;;;;;;;;4995435;28;20037;-67
2022/04/14 00:02:55;;;;;;;26.63;5.90;;;;;;;;;;4982947;28;20038;-67
2022/04/14 00:05:20;;;;;;;29.38;5.60;;;;;;;;;;4992372;28;20426;-67
2022/04/14 00:07:46;;;;;;;33.17;6.00;;;;;;;;;;4985163;28;20033;-67
2022/04/14 00:10:12;;;;;;;62.45;9.68;;;;;;;;;;5010264;28;20065;-67
2022/04/14 00:12:38;;;;;;;90.15;11.57;;;;;;;;;;4982526;28;20035;-67
2022/04/14 00:15:05;;;;;;;47.13;6.82;;;;;;;;;;5009460;28;20105;-67
2022/04/14 00:17:34;;;;;;;44.33;8.75;;;;;;;;;;4986603;28;20038;-67
2022/04/14 00:20:00;;;;;;;39.35;8.50;;;;;;;;;;4994436;28;20172;-67
2022/04/14 00:22:26;;;;;;;50.47;7.25;;;;;;;;;;4980303;28;20387;-67
2022/04/14 00:24:51;;;;;;;69.88;7.38;;;;;;;;;;5003668;28;20045;-67
2022/04/14 00:27:18;;;;;;;43.42;6.82;;;;;;;;;;4993463;28;20389;-67
2022/04/14 00:29:44;;;;;;;40.53;5.60;;;;;;;;;;4995061;28;20041;-67
2022/04/14 00:32:09;;;;;;;61.50;7.78;;;;;;;;;;4983304;28;20411;-67
2022/04/14 00:34:35;;;;;;;80.65;10.18;;;;;;;;;;4991800;28;20038;-67
2022/04/14 00:37:01;;;;;;;48.10;6.60;;;;;;;;;;4978928;28;20085;-67
2022/04/14 00:39:27;;;;;;;40.15;5.90;;;;;;;;;;4985107;28;20038;-67
2022/04/14 00:41:52;;;;;;;30.40;5.45;;;;;;;;;;4989398;28;20147;-67
2022/04/14 00:44:17;;;;;;;31.17;6.03;;;;;;;;;;4995469;28;20030;-68
2022/04/14 00:46:43;;;;;;;33.75;5.13;;;;;;;;;;4989783;28;20026;-67
2022/04/14 00:49:09;;;;;;;29.08;5.20;;;;;;;;;;4995373;28;20042;-67
2022/04/14 00:51:35;;;;;;;31.23;5.00;;;;;;;;;;4987207;28;20492;-67
2022/04/14 00:54:00;;;;;;;82.90;5.70;;;;;;;;;;4989545;28;20415;-67
2022/04/14 00:56:26;;;;;;;36.55;5.93;;;;;;;;;;4992885;28;20039;-67
2022/04/14 00:58:51;;;;;;;35.67;7.25;;;;;;;;;;4988202;28;20045;-67
2022/04/14 01:01:19;;;;;;;66.03;10.05;;;;;;;;;;4981052;28;20128;-67
2022/04/14 01:03:45;;;;;;;109.60;12.85;;;;;;;;;;4995000;28;20085;-67
2022/04/14 01:06:14;;;;;;;79.10;13.13;;;;;;;;;;4988865;28;20054;-67
2022/04/14 01:08:40;;;;;;;89.78;12.45;;;;;;;;;;4978362;28;20170;-67
2022/04/14 01:11:06;;;;;;;97.47;11.27;;;;;;;;;;4983728;28;20129;-67
2022/04/14 01:13:31;;;;;;;94.65;10.75;;;;;;;;;;4995052;28;20042;-67
2022/04/14 01:15:58;;;;;;;107.07;8.43;;;;;;;;;;4992805;28;20034;-67
2022/04/14 01:18:25;;;;;;;83.05;10.15;;;;;;;;;;4986712;28;20363;-67
2022/04/14 01:20:50;;;;;;;82.07;11.68;;;;;;;;;;4984930;28;20498;-67
2022/04/14 01:23:20;;;;;;;59.58;9.23;;;;;;;;;;4994823;28;20038;-67
2022/04/14 01:25:46;;;;;;;72.60;8.80;;;;;;;;;;4976651;28;20043;-67
2022/04/14 01:28:11;;;;;;;66.13;9.05;;;;;;;;;;4975333;28;20037;-67
2022/04/14 01:30:37;;;;;;;85.93;10.68;;;;;;;;;;4985958;28;20414;-67
2022/04/14 01:33:03;;;;;;;90.00;8.35;;;;;;;;;;4991652;28;20117;-67
2022/04/14 01:35:28;;;;;;;76.95;8.60;;;;;;;;;;4993037;28;20053;-67
2022/04/14 01:37:54;;;;;;;46.45;7.65;;;;;;;;;;4980649;28;20041;-67
2022/04/14 01:40:19;;;;;;;90.75;9.80;;;;;;;;;;4989935;28;20427;-67
2022/04/14 01:42:44;;;;;;;117.80;9.73;;;;;;;;;;4977797;28;20031;-67
2022/04/14 01:45:10;;;;;;;55.33;8.30;;;;;;;;;;4992287;28;20109;-67
2022/04/14 01:47:41;;;;;;;86.30;12.88;;;;;;;;;;4985832;28;20062;-67
2022/04/14 01:50:08;;;;;;;82.90;9.05;;;;;;;;;;4975694;28;20402;-67
2022/04/14 01:52:34;;;;;;;86.22;9.25;;;;;;;;;;4975597;28;20546;-67
2022/04/14 01:54:59;;;;;;;52.97;7.88;;;;;;;;;;5003988;28;20561;-67
2022/04/14 01:57:25;;;;;;;58.72;8.15;;;;;;;;;;4975875;28;20034;-67
2022/04/14 01:59:50;;;;;;;61.65;10.40;;;;;;;;;;4980209;28;20089;-67
2022/04/14 02:02:16;;;;;;;42.67;8.68;;;;;;;;;;4988821;28;20042;-67
2022/04/14 02:04:42;;;;;;;51.03;9.27;;;;;;;;;;4989941;28;20526;-67
2022/04/14 02:07:09;;;;;;;51.38;8.10;;;;;;;;;;4990171;28;20414;-67
2022/04/14 02:09:35;;;;;;;56.75;12.75;;;;;;;;;;4974718;28;20129;-67
2022/04/14 02:12:00;;;;;;;47.30;9.23;;;;;;;;;;4989426;28;20538;-67
2022/04/14 02:14:26;;;;;;;47.47;8.68;;;;;;;;;;4994132;28;20042;-67
2022/04/14 02:16:53;;;;;;;29.08;7.85;;;;;;;;;;4979028;28;20089;-68
2022/04/14 02:19:18;;;;;;;31.23;8.15;;;;;;;;;;4984561;28;20137;-67
2022/04/14 02:21:44;;;;;;;31.20;7.72;;;;;;;;;;4984848;28;20125;-67
2022/04/14 02:24:09;;;;;;;60.80;10.38;;;;;;;;;;4986474;28;20066;-67
2022/04/14 02:26:35;;;;;;;77.82;8.75;;;;;;;;;;4980706;28;20038;-67
2022/04/14 02:29:00;;;;;;;63.58;9.02;;;;;;;;;;4986170;28;20109;-67
2022/04/14 02:31:26;;;;;;;87.35;9.93;;;;;;;;;;4984280;28;20093;-67
2022/04/14 02:33:51;;;;;;;52.78;9.48;;;;;;;;;;4985906;28;20038;-67
2022/04/14 02:36:16;;;;;;;69.78;9.10;;;;;;;;;;4982536;28;20109;-67
2022/04/14 02:38:43;;;;;;;94.05;9.63;;;;;;;;;;4977079;28;20122;-67
2022/04/14 02:41:09;;;;;;;80.38;8.35;;;;;;;;;;4981223;28;20091;-67
2022/04/14 02:43:37;;;;;;;53.92;6.88;;;;;;;;;;4997088;28;20462;-67
2022/04/14 02:46:02;;;;;;;53.58;7.57;;;;;;;;;;4995359;28;20031;-67
2022/04/14 02:48:28;;;;;;;47.13;7.28;;;;;;;;;;4991369;28;20033;-67
2022/04/14 02:50:53;;;;;;;37.60;6.85;;;;;;;;;;4979008;28;20050;-67
2022/04/14 02:53:18;;;;;;;42.35;7.10;;;;;;;;;;4984759;28;20042;-67
2022/04/14 02:55:44;;;;;;;48.65;7.50;;;;;;;;;;4981945;28;20030;-67
2022/04/14 02:58:09;;;;;;;42.28;5.75;;;;;;;;;;4978003;28;20046;-67
2022/04/14 03:00:35;;;;;;;49.00;5.60;;;;;;;;;;4994378;28;20039;-67
2022/04/14 03:03:00;;;;;;;30.50;5.55;;;;;;;;;;4993802;28;20041;-67
2022/04/14 03:05:26;;;;;;;49.97;6.07;;;;;;;;;;4982470;28;20046;-68
2022/04/14 03:07:51;;;;;;;46.88;5.43;;;;;;;;;;4990359;28;20093;-67
2022/04/14 03:10:16;;;;;;;41.33;5.22;;;;;;;;;;4987481;28;20137;-67
2022/04/14 03:12:43;;;;;;;28.77;5.43;;;;;;;;;;4995357;28;20034;-67
2022/04/14 03:15:09;;;;;;;31.50;4.85;;;;;;;;;;4996791;28;20043;-67
2022/04/14 03:17:35;;;;;;;18.17;5.00;;;;;;;;;;4991490;28;20023;-67
2022/04/14 03:20:00;;;;;;;22.55;5.05;;;;;;;;;;4991410;28;20500;-67
2022/04/14 03:22:26;;;;;;;16.48;4.85;;;;;;;;;;4998334;28;20042;-67
2022/04/14 03:24:51;;;;;;;15.10;4.40;;;;;;;;;;4995858;28;20062;-67
2022/04/14 03:27:16;;;;;;;14.85;3.70;;;;;;;;;;5011030;28;20070;-67
2022/04/14 03:29:42;;;;;;;17.17;4.72;;;;;;;;;;4998299;28;20045;-67
2022/04/14 03:32:07;;;;;;;14.88;4.32;;;;;;;;;;4984944;28;20102;-67
2022/04/14 03:34:33;;;;;;;23.15;4.07;;;;;;;;;;4990470;28;20505;-67
2022/04/14 03:36:58;;;;;;;17.85;4.53;;;;;;;;;;4981264;28;20497;-67
2022/04/14 03:39:24;;;;;;;30.15;4.10;;;;;;;;;;4984343;28;20038;-67
2022/04/14 03:41:49;;;;;;;19.42;4.45;;;;;;;;;;4986502;28;20178;-67
2022/04/14 03:44:15;;;;;;;19.40;4.50;;;;;;;;;;4992406;28;20061;-67
2022/04/14 03:46:40;;;;;;;19.27;4.57;;;;;;;;;;4984073;28;20053;-67
2022/04/14 03:49:06;;;;;;;19.42;4.28;;;;;;;;;;4996411;28;20475;-67
2022/04/14 03:51:31;;;;;;;14.27;4.10;;;;;;;;;;4984167;28;20109;-67
2022/04/14 03:53:56;;;;;;;14.80;4.43;;;;;;;;;;4988387;28;20022;-67
2022/04/14 03:56:22;;;;;;;17.70;3.90;;;;;;;;;;4992952;28;20045;-67
2022/04/14 03:58:47;;;;;;;21.85;4.53;;;;;;;;;;4995993;28;20030;-67
2022/04/14 04:01:13;;;;;;;17.50;4.47;;;;;;;;;;4987447;28;20031;-67
2022/04/14 04:03:38;;;;;;;17.77;4.38;;;;;;;;;;4987018;28;20434;-67
2022/04/14 04:06:03;;;;;;;19.17;4.72;;;;;;;;;;4993895;28;20038;-67
2022/04/14 04:08:29;;;;;;;21.17;4.75;;;;;;;;;;4993415;28;20525;-67
2022/04/14 04:10:54;;;;;;;23.73;4.70;;;;;;;;;;4993507;28;20123;-67
2022/04/14 04:13:19;;;;;;;15.38;4.43;;;;;;;;;;4984069;28;20157;-67
2022/04/14 04:15:45;;;;;;;23.15;4.60;;;;;;;;;;4990241;28;20089;-67
2022/04/14 04:18:11;;;;;;;16.75;4.00;;;;;;;;;;4990213;28;20033;-67
2022/04/14 04:20:36;;;;;;;15.50;4.18;;;;;;;;;;4994814;28;20042;-67
2022/04/14 04:23:05;;;;;;;11.13;4.07;;;;;;;;;;4994771;28;20121;-67
2022/04/14 04:25:31;;;;;;;14.52;3.72;;;;;;;;;;5002672;28;20044;-67
2022/04/14 04:27:56;;;;;;;9.35;3.45;;;;;;;;;;4995479;28;20034;-67
2022/04/14 04:30:22;;;;;;;11.27;3.90;;;;;;;;;;4985100;28;20471;-67
2022/04/14 04:32:47;;;;;;;13.35;4.03;;;;;;;;;;4977009;28;20169;-67
2022/04/14 04:35:13;;;;;;;15.88;4.03;;;;;;;;;;4981177;28;20049;-67
2022/04/14 04:37:38;;;;;;;12.98;3.58;;;;;;;;;;4989610;28;20096;-67
2022/04/14 04:40:04;;;;;;;15.07;3.58;;;;;;;;;;4995592;28;20430;-67
2022/04/14 04:42:31;;;;;;;22.73;4.25;;;;;;;;;;4993880;28;20038;-67
2022/04/14 04:44:56;;;;;;;16.52;4.15;;;;;;;;;;4992471;28;20027;-67
2022/04/14 04:47:21;;;;;;;13.65;3.72;;;;;;;;;;4977116;28;20439;-67
2022/04/14 04:49:47;;;;;;;9.60;3.70;;;;;;;;;;4976045;28;20034;-67
2022/04/14 04:52:13;;;;;;;8.77;3.13;;;;;;;;;;4976961;28;20375;-67
2022/04/14 04:54:39;;;;;;;15.40;3.83;;;;;;;;;;4989294;28;20421;-67
2022/04/14 04:57:04;;;;;;;20.83;4.78;;;;;;;;;;4992010;28;20077;-67
2022/04/14 04:59:30;;;;;;;13.05;3.83;;;;;;;;;;4995353;28;20034;-67
2022/04/14 05:01:55;;;;;;;17.50;3.80;;;;;;;;;;4983423;28;20046;-67
2022/04/14 05:04:21;;;;;;;12.43;3.65;;;;;;;;;;4975833;28;20384;-67
2022/04/14 05:06:46;;;;;;;13.20;3.75;;;;;;;;;;4979668;28;20026;-67
2022/04/14 05:09:11;;;;;;;14.25;3.83;;;;;;;;;;4993281;28;20104;-67
2022/04/14 05:11:37;;;;;;;13.00;3.95;;;;;;;;;;4985969;28;20030;-67
2022/04/14 05:14:02;;;;;;;12.95;3.60;;;;;;;;;;4976621;28;20058;-67
2022/04/14 05:16:28;;;;;;;14.68;4.10;;;;;;;;;;4976303;28;20491;-67
2022/04/14 05:18:53;;;;;;;13.27;3.90;;;;;;;;;;4989316;28;20040;-67
2022/04/14 05:21:18;;;;;;;9.23;3.40;;;;;;;;;;4988418;28;20422;-67
2022/04/14 05:23:44;;;;;;;20.67;4.07;;;;;;;;;;4982166;28;20036;-67
2022/04/14 05:26:09;;;;;;;11.35;3.58;;;;;;;;;;5004008;28;20034;-67
2022/04/14 05:28:35;;;;;;;14.80;4.13;;;;;;;;;;4975375;28;20055;-67
2022/04/14 05:31:01;;;;;;;12.10;4.47;;;;;;;;;;4986196;28;20058;-67
2022/04/14 05:33:26;;;;;;;14.70;3.75;;;;;;;;;;4975326;28;20042;-67
2022/04/14 05:35:52;;;;;;;16.67;4.00;;;;;;;;;;4986620;28;20030;-67
2022/04/14 05:38:17;;;;;;;10.50;3.38;;;;;;;;;;4989851;28;20070;-67
2022/04/14 05:40:45;;;;;;;10.82;3.60;;;;;;;;;;4990009;28;20048;-67
2022/04/14 05:43:14;;;;;;;10.88;3.92;;;;;;;;;;4994350;28;20077;-67
2022/04/14 05:45:40;;;;;;;10.48;3.22;;;;;;;;;;4993620;28;20038;-67
2022/04/14 05:48:05;;;;;;;9.75;3.78;;;;;;;;;;4982855;28;20043;-67
2022/04/14 05:50:31;;;;;;;8.80;3.70;;;;;;;;;;4974926;28;20046;-67
2022/04/14 05:52:57;;;;;;;10.82;3.53;;;;;;;;;;4975844;28;20482;-67
2022/04/14 05:55:22;;;;;;;9.40;3.35;;;;;;;;;;4974883;28;20482;-67
2022/04/14 05:57:48;;;;;;;10.35;3.50;;;;;;;;;;4983227;28;20030;-67
2022/04/14 06:00:14;;;;;;;12.98;3.40;;;;;;;;;;4991475;28;20470;-67
2022/04/14 06:02:40;;;;;;;13.35;3.80;;;;;;;;;;4984412;28;20043;-67
2022/04/14 06:05:06;;;;;;;10.75;3.40;;;;;;;;;;4974698;28;20054;-67
2022/04/14 06:07:32;;;;;;;9.18;3.45;;;;;;;;;;4983290;28;20038;-67
2022/04/14 06:09:57;;;;;;;10.50;3.55;;;;;;;;;;4974861;28;20614;-67
2022/04/14 06:12:22;;;;;;;9.73;3.40;;;;;;;;;;4990282;28;20050;-67
2022/04/14 06:14:49;;;;;;;12.48;3.47;;;;;;;;;;4988436;28;20097;-67
2022/04/14 06:17:15;;;;;;;12.90;4.00;;;;;;;;;;4990597;28;20138;-67
2022/04/14 06:19:40;;;;;;;10.43;3.38;;;;;;;;;;4974663;28;20109;-67
2022/04/14 06:22:06;;;;;;;11.15;3.30;;;;;;;;;;4980411;28;20050;-67
2022/04/14 06:24:31;;;;;;;11.27;3.30;;;;;;;;;;5003859;28;20034;-67
2022/04/14 06:26:56;;;;;;;12.65;3.60;;;;;;;;;;4995129;28;20027;-67
2022/04/14 06:29:22;;;;;;;10.63;3.58;;;;;;;;;;4992387;28;20041;-67
2022/04/14 06:31:48;;;;;;;8.98;3.42;;;;;;;;;;4980830;28;20126;-67
2022/04/14 06:34:13;;;;;;;12.15;3.58;;;;;;;;;;4989327;28;20068;-67
2022/04/14 06:36:39;;;;;;;16.63;4.13;;;;;;;;;;4976288;28;20027;-67
2022/04/14 06:39:04;;;;;;;19.20;4.18;;;;;;;;;;4991173;28;20439;-67
2022/04/14 06:41:29;;;;;;;12.63;3.65;;;;;;;;;;4992155;28;20034;-67
2022/04/14 06:43:55;;;;;;;16.92;4.20;;;;;;;;;;5001331;28;20073;-68
2022/04/14 06:46:20;;;;;;;11.75;3.45;;;;;;;;;;5002364;28;20482;-67
2022/04/14 06:48:45;;;;;;;15.00;3.47;;;;;;;;;;5000521;28;20382;-67
2022/04/14 06:51:11;;;;;;;19.45;4.35;;;;;;;;;;4994284;28;20113;-67
2022/04/14 06:53:38;;;;;;;17.55;4.80;;;;;;;;;;5001773;28;20470;-67
2022/04/14 06:56:07;;;;;;;14.13;3.83;;;;;;;;;;4999788;28;20038;-67
2022/04/14 06:58:32;;;;;;;27.23;4.47;;;;;;;;;;4993571;28;20540;-67
2022/04/14 07:00:58;;;;;;;17.23;4.47;;;;;;;;;;4999180;28;20045;-67
2022/04/14 07:03:26;;;;;;;21.52;4.68;;;;;;;;;;5001285;28;20061;-67
2022/04/14 07:05:54;;;;;;;14.75;4.45;;;;;;;;;;5004464;28;20038;-67
2022/04/14 07:08:24;;;;;;;15.13;4.57;;;;;;;;;;4980765;28;20051;-67
2022/04/14 07:10:51;;;;;;;19.33;4.45;;;;;;;;;;4974825;28;20042;-67
2022/04/14 07:13:16;;;;;;;16.85;4.45;;;;;;;;;;4985203;28;20425;-67
2022/04/14 07:15:42;;;;;;;13.98;3.97;;;;;;;;;;4993134;28;20427;-67
2022/04/14 07:18:07;;;;;;;14.27;3.67;;;;;;;;;;4993502;28;20097;-67
2022/04/14 07:20:32;;;;;;;18.77;4.93;;;;;;;;;;4980071;28;20045;-67
2022/04/14 07:22:59;;;;;;;15.07;4.10;;;;;;;;;;4981353;28;20039;-67
2022/04/14 07:25:25;;;;;;;12.18;4.13;;;;;;;;;;5000790;28;20097;-67
2022/04/14 07:27:51;;;;;;;18.17;4.80;;;;;;;;;;4991733;28;20474;-67
2022/04/14 07:30:18;;;;;;;19.88;5.00;;;;;;;;;;4996614;28;20112;-67
2022/04/14 07:32:45;;;;;;;20.33;4.80;;;;;;;;;;4993929;28;20053;-67
2022/04/14 07:35:12;;;;;;;13.05;5.18;;;;;;;;;;4988654;28;20037;-67
2022/04/14 07:37:37;;;;;;;20.95;5.20;;;;;;;;;;5005008;28;20038;-67
2022/04/14 07:40:06;;;;;;;20.23;5.50;;;;;;;;;;4990749;28;20038;-67
2022/04/14 07:42:33;;;;;;;11.80;4.72;;;;;;;;;;4985130;28;20042;-68
2022/04/14 07:44:58;;;;;;;22.63;6.22;;;;;;;;;;4983477;28;20061;-68
2022/04/14 07:47:24;;;;;;;24.40;5.53;;;;;;;;;;4977549;28;20034;-68
2022/04/14 07:49:49;;;;;;;17.60;5.82;;;;;;;;;;4989188;28;20065;-68
2022/04/14 07:52:15;;;;;;;17.85;5.75;;;;;;;;;;4989786;28;20062;-68
2022/04/14 07:54:41;;;;;;;15.98;5.65;;;;;;;;;;4990491;28;20049;-68
2022/04/14 07:57:06;;;;;;;18.95;6.78;;;;;;;;;;4988906;28;20109;-68
2022/04/14 07:59:32;;;;;;;17.85;6.18;;;;;;;;;;4988551;28;20138;-68
2022/04/14 08:02:00;;;;;;;19.55;6.63;;;;;;;;;;4989307;28;20496;-67
2022/04/14 08:04:26;;;;;;;19.00;6.03;;;;;;;;;;5004647;28;20418;-67
2022/04/14 08:06:52;;;;;;;15.30;5.97;;;;;;;;;;4987539;28;20036;-67
2022/04/14 08:09:18;;;;;;;12.88;6.25;;;;;;;;;;4987732;28;20058;-67
2022/04/14 08:11:43;;;;;;;18.17;6.50;;;;;;;;;;4987841;28;20470;-68
2022/04/14 08:14:08;;;;;;;13.95;6.53;;;;;;;;;;4985788;28;20054;-67
2022/04/14 08:16:34;;;;;;;16.35;6.47;;;;;;;;;;4985954;28;20062;-67
2022/04/14 08:18:59;;;;;;;16.05;6.57;;;;;;;;;;4982154;28;20035;-67
2022/04/14 08:21:25;;;;;;;15.77;7.38;;;;;;;;;;4993377;28;20069;-68
2022/04/14 08:23:52;;;;;;;17.80;7.60;;;;;;;;;;4986276;28;20061;-68
2022/04/14 08:26:17;;;;;;;13.73;6.55;;;;;;;;;;4986656;28;20034;-68
2022/04/14 08:28:43;;;;;;;18.85;6.93;;;;;;;;;;4983135;28;20537;-67
2022/04/14 08:31:10;;;;;;;15.75;7.05;;;;;;;;;;4986831;28;20363;-68
2022/04/14 08:33:38;;;;;;;16.98;5.90;;;;;;;;;;4986302;28;20106;-68
2022/04/14 08:36:05;;;;;;;12.30;6.43;;;;;;;;;;4987221;28;20031;-67
2022/04/14 08:38:31;;;;;;;14.23;6.50;;;;;;;;;;4984759;28;20030;-67
2022/04/14 08:41:01;;;;;;;12.80;6.00;;;;;;;;;;4975054;28;20046;-68
2022/04/14 08:43:34;;;;;;;12.90;5.55;;;;;;;;;;4971855;28;20035;-68
2022/04/14 08:46:01;;;;;;;11.60;5.55;;;;;;;;;;4977158;28;20042;-67
2022/04/14 08:48:27;;;;;;;10.18;4.97;;;;;;;;;;4981329;28;20038;-68
2022/04/14 08:50:54;;;;;;;9.48;5.15;;;;;;;;;;4979731;28;20505;-68
2022/04/14 08:53:23;;;;;;;11.80;5.10;;;;;;;;;;4979658;28;20053;-67
2022/04/14 08:55:49;;;;;;;10.15;4.97;;;;;;;;;;4979374;28;20034;-68
2022/04/14 08:58:15;;;;;;;10.43;5.22;;;;;;;;;;4980880;28;20855;-68
2022/04/14 09:00:41;;;;;;;11.45;5.82;;;;;;;;;;4977566;28;20038;-67
2022/04/14 09:03:07;;;;;;;14.93;7.13;;;;;;;;;;4980363;28;20096;-68
2022/04/14 09:05:33;;;;;;;16.52;6.63;;;;;;;;;;4995557;28;20470;-67
2022/04/14 09:07:59;;;;;;;10.90;5.60;;;;;;;;;;4995374;28;20043;-68
2022/04/14 09:10:24;;;;;;;11.80;5.43;;;;;;;;;;4980803;28;20050;-67
2022/04/14 09:12:50;;;;;;;11.88;5.65;;;;;;;;;;4980652;28;20027;-67
2022/04/14 09:15:16;;;;;;;10.30;5.03;;;;;;;;;;4980301;28;20478;-68
2022/04/14 09:17:42;;;;;;;12.10;5.75;;;;;;;;;;4979375;28;20042;-68
2022/04/14 09:20:31;;;;;;;14.65;5.43;;;;;;;;;;4964961;28;20034;-68
2022/04/14 09:23:22;;;;;;;10.45;5.18;;;;;;;;;;4972598;28;20053;-68
2022/04/14 09:26:03;;;;;;;13.60;5.50;;;;;;;;;;4973378;28;20034;-68
2022/04/14 09:28:28;;;;;;;13.38;6.45;;;;;;;;;;4969717;28;20042;-68
2022/04/14 09:31:01;;;;;;;13.90;6.50;;;;;;;;;;4971870;28;20088;-68
2022/04/14 09:33:45;;;;;;;12.85;6.70;;;;;;;;;;4974139;28;20247;-68
2022/04/14 09:37:11;;;;;;;11.57;6.55;;;;;;;;;;4973427;28;20034;-68
2022/04/14 09:40:47;;;;;;;13.52;6.45;;;;;;;;;;4965026;28;20050;-68
2022/04/14 09:44:06;;;;;;;17.05;7.72;;;;;;;;;;4972077;28;20105;-68
2022/04/14 09:46:34;;;;;;;10.95;6.47;;;;;;;;;;4973189;28;20056;-68
2022/04/14 09:49:08;;;;;;;10.70;6.32;;;;;;;;;;4983728;28;20054;-68
2022/04/14 09:51:35;;;;;;;11.15;5.78;;;;;;;;;;4972122;28;20046;-68
2022/04/14 09:54:27;;;;;;;12.68;6.97;;;;;;;;;;4971525;28;20039;-68
2022/04/14 09:56:57;;;;;;;14.82;6.60;;;;;;;;;;4978981;28;20278;-68
2022/04/14 09:59:24;;;;;;;16.25;7.32;;;;;;;;;;4973888;28;20591;-68
2022/04/14 10:02:17;;;;;;;13.18;6.88;;;;;;;;;;4977928;28;20070;-68
2022/04/14 10:04:44;;;;;;;11.55;6.28;;;;;;;;;;4978113;28;20713;-68
2022/04/14 10:07:17;;;;;;;14.25;6.85;;;;;;;;;;4978729;28;20061;-68
2022/04/14 10:09:45;;;;;;;13.15;7.22;;;;;;;;;;4974380;28;20042;-68
2022/04/14 10:12:17;;;;;;;12.68;7.10;;;;;;;;;;4984287;28;20055;-68
2022/04/14 10:15:10;;;;;;;14.00;7.65;;;;;;;;;;4984920;28;20384;-68
2022/04/14 10:18:21;;;;;;;12.85;7.13;;;;;;;;;;4985285;28;20039;-68
2022/04/14 10:20:47;;;;;;;19.65;8.85;;;;;;;;;;4985172;28;20046;-67
2022/04/14 10:23:14;;;;;;;14.60;7.97;;;;;;;;;;4980921;28;20057;-68
2022/04/14 10:25:41;;;;;;;14.05;7.28;;;;;;;;;;4994837;28;20044;-68
2022/04/14 10:28:09;;;;;;;18.38;7.95;;;;;;;;;;4974455;28;20043;-69
2022/04/14 10:30:34;;;;;;;15.85;7.97;;;;;;;;;;4977838;28;20039;-68
2022/04/14 10:33:00;;;;;;;12.77;7.00;;;;;;;;;;4969596;28;20045;-68
2022/04/14 10:35:27;;;;;;;14.90;8.45;;;;;;;;;;4971061;28;20367;-68
2022/04/14 10:38:18;;;;;;;16.00;7.38;;;;;;;;;;4972062;28;20061;-69
2022/04/14 10:41:16;;;;;;;11.93;5.47;;;;;;;;;;4962153;28;20054;-69
2022/04/14 10:43:46;;;;;;;12.80;4.50;;;;;;;;;;4970186;28;20047;-67
2022/04/14 10:46:15;;;;;;;9.10;4.15;;;;;;;;;;4959934;28;20053;-68
2022/04/14 10:48:42;;;;;;;10.10;4.05;;;;;;;;;;4965770;28;20790;-69
2022/04/14 10:51:28;;;;;;;6.22;3.53;;;;;;;;;;4970043;28;20078;-69
2022/04/14 10:53:56;;;;;;;9.10;3.53;;;;;;;;;;4972507;28;20058;-69
2022/04/14 10:56:33;;;;;;;8.85;3.00;;;;;;;;;;4961652;28;20026;-68
2022/04/14 10:59:00;;;;;;;9.50;3.80;;;;;;;;;;4970343;28;20134;-69
2022/04/14 11:04:34;;;;;;;10.40;3.08;;;;;;;;;;4973597;28;20526;-68
2022/04/14 11:07:15;;;;;;;7.05;3.33;;;;;;;;;;4973612;28;20074;-68
2022/04/14 11:09:57;;;;;;;9.10;3.35;;;;;;;;;;4975610;28;20944;-69
2022/04/14 11:12:32;;;;;;;6.53;3.35;;;;;;;;;;4975111;28;20038;-69
2022/04/14 11:15:01;;;;;;;8.80;3.22;;;;;;;;;;4950966;28;20038;-68
2022/04/14 11:17:47;;;;;;;8.65;2.83;;;;;;;;;;4972371;28;20030;-68
2022/04/14 11:20:18;;;;;;;9.35;3.25;;;;;;;;;;4976319;28;20078;-68
2022/04/14 11:23:07;;;;;;;7.20;2.90;;;;;;;;;;4976491;28;20042;-68
2022/04/14 11:25:42;;;;;;;10.23;2.50;;;;;;;;;;4972894;28;20045;-68
2022/04/14 11:28:20;;;;;;;10.35;2.72;;;;;;;;;;4978842;28;20058;-68
2022/04/14 11:30:46;;;;;;;7.63;2.85;;;;;;;;;;4980644;28;20051;-69
2022/04/14 11:33:14;;;;;;;8.90;2.70;;;;;;;;;;4973999;28;20049;-69
2022/04/14 11:35:45;;;;;;;5.88;2.65;;;;;;;;;;4970292;28;20038;-68
2022/04/14 11:38:49;;;;;;;8.68;3.45;;;;;;;;;;4976532;28;20057;-69
2022/04/14 11:41:43;;;;;;;6.40;1.90;;;;;;;;;;4978025;28;20042;-68
2022/04/14 11:44:15;;;;;;;10.00;3.03;;;;;;;;;;4971423;28;20034;-68
2022/04/14 11:46:52;;;;;;;5.05;1.90;;;;;;;;;;4972654;28;20053;-69
2022/04/14 11:49:19;;;;;;;5.97;1.95;;;;;;;;;;4977290;28;20073;-69
2022/04/14 11:51:50;;;;;;;4.50;1.23;;;;;;;;;;4975593;28;20038;-68
2022/04/14 11:54:21;;;;;;;1.73;0.85;;;;;;;;;;4972663;28;20030;-69
2022/04/14 11:56:52;;;;;;;5.20;1.70;;;;;;;;;;4971778;28;20050;-69
2022/04/14 11:59:39;;;;;;;3.60;1.77;;;;;;;;;;4977023;28;20030;-69
2022/04/14 12:02:24;;;;;;;5.93;2.05;;;;;;;;;;4975178;28;20100;-69
2022/04/14 12:04:54;;;;;;;4.47;1.33;;;;;;;;;;4973784;28;20051;-69
2022/04/14 12:07:23;;;;;;;4.43;1.60;;;;;;;;;;4976887;28;20038;-69
2022/04/14 12:10:05;;;;;;;4.10;1.73;;;;;;;;;;4982742;28;20921;-69
2022/04/14 12:12:32;;;;;;;2.55;1.02;;;;;;;;;;4982334;28;20430;-69
2022/04/14 12:14:58;;;;;;;3.60;1.40;;;;;;;;;;4978972;28;20069;-68
2022/04/14 12:17:24;;;;;;;5.13;1.45;;;;;;;;;;4981207;28;20165;-69
2022/04/14 12:20:00;;;;;;;4.50;2.00;;;;;;;;;;4982830;28;20133;-69
2022/04/14 12:22:35;;;;;;;4.03;1.20;;;;;;;;;;4981911;28;20042;-69
2022/04/14 12:25:06;;;;;;;4.65;1.17;;;;;;;;;;4972599;28;20057;-69
2022/04/14 12:27:38;;;;;;;3.15;0.88;;;;;;;;;;4982224;28;20073;-69
2022/04/14 12:30:14;;;;;;;10.75;0.95;;;;;;;;;;4982350;28;20038;-69
2022/04/14 12:32:42;;;;;;;3.17;0.80;;;;;;;;;;4982672;28;20160;-69
2022/04/14 12:35:09;;;;;;;5.10;1.15;;;;;;;;;;4987515;28;20081;-68
2022/04/14 12:37:39;;;;;;;5.00;1.00;;;;;;;;;;4987324;28;20066;-68
2022/04/14 12:40:08;;;;;;;2.13;1.10;;;;;;;;;;4988962;28;20129;-68
2022/04/14 12:42:33;;;;;;;4.40;1.20;;;;;;;;;;4987111;28;20407;-69
2022/04/14 12:45:13;;;;;;;3.22;1.17;;;;;;;;;;4989069;28;20042;-68
2022/04/14 12:47:56;;;;;;;3.78;1.08;;;;;;;;;;4989599;28;20081;-68
2022/04/14 12:50:23;;;;;;;6.25;1.25;;;;;;;;;;4987321;28;20035;-68
2022/04/14 12:52:56;;;;;;;3.92;1.20;;;;;;;;;;4987158;28;20065;-68
2022/04/14 12:55:23;;;;;;;3.67;1.23;;;;;;;;;;4988027;28;20922;-68
2022/04/14 12:57:48;;;;;;;2.85;1.13;;;;;;;;;;4987625;28;20038;-69
2022/04/14 13:00:18;;;;;;;6.38;1.67;;;;;;;;;;4988459;28;20485;-69
2022/04/14 13:02:59;;;;;;;4.93;1.40;;;;;;;;;;4987065;28;20034;-69
2022/04/14 13:05:27;;;;;;;5.68;1.23;;;;;;;;;;4988893;28;20047;-69
2022/04/14 13:07:54;;;;;;;4.15;1.45;;;;;;;;;;4987659;28;20034;-68
2022/04/14 13:10:30;;;;;;;7.15;1.90;;;;;;;;;;4989245;28;20030;-68
2022/04/14 13:12:57;;;;;;;4.18;1.80;;;;;;;;;;4988705;28;20042;-69
2022/04/14 13:15:24;;;;;;;7.03;2.03;;;;;;;;;;4988032;28;20478;-69
2022/04/14 13:17:50;;;;;;;6.60;1.85;;;;;;;;;;4989060;28;20034;-68
2022/04/14 13:20:20;;;;;;;5.18;1.75;;;;;;;;;;4989232;28;20038;-68
2022/04/14 13:22:51;;;;;;;6.95;1.77;;;;;;;;;;4989747;28;20049;-69
2022/04/14 13:25:17;;;;;;;7.75;1.52;;;;;;;;;;4987552;28;20100;-68
2022/04/14 13:27:42;;;;;;;5.90;1.63;;;;;;;;;;4985931;28;20096;-68
2022/04/14 13:30:09;;;;;;;5.38;1.70;;;;;;;;;;4988253;28;20501;-69
2022/04/14 13:32:34;;;;;;;6.80;1.90;;;;;;;;;;4986880;28;20062;-68
2022/04/14 13:35:00;;;;;;;5.13;1.80;;;;;;;;;;4988055;28;20068;-69
2022/04/14 13:37:26;;;;;;;5.65;1.27;;;;;;;;;;4986459;28;20041;-69
2022/04/14 13:39:51;;;;;;;9.10;1.90;;;;;;;;;;4974008;28;20058;-69
2022/04/14 13:42:17;;;;;;;6.38;1.52;;;;;;;;;;4976465;28;20050;-69
2022/04/14 13:44:43;;;;;;;4.88;1.50;;;;;;;;;;4980967;28;20046;-69
2022/04/14 13:47:09;;;;;;;3.65;1.45;;;;;;;;;;4997304;28;20038;-70
2022/04/14 13:49:34;;;;;;;9.68;1.80;;;;;;;;;;4978011;28;20038;-69
2022/04/14 13:52:04;;;;;;;7.07;2.15;;;;;;;;;;4979179;28;20750;-70
2022/04/14 13:54:31;;;;;;;9.77;1.88;;;;;;;;;;4980309;28;20037;-72
2022/04/14 13:56:56;;;;;;;4.65;1.35;;;;;;;;;;4979469;28;20042;-70
2022/04/14 13:59:22;;;;;;;5.68;1.30;;;;;;;;;;4979876;28;20049;-70
2022/04/14 14:01:47;;;;;;;6.28;1.70;;;;;;;;;;4978329;28;20036;-70
2022/04/14 14:04:13;;;;;;;2.20;1.20;;;;;;;;;;4980918;28;20074;-70
2022/04/14 14:06:39;;;;;;;4.90;1.30;;;;;;;;;;4979237;28;20041;-69
2022/04/14 14:09:04;;;;;;;5.18;1.52;;;;;;;;;;4980581;28;20039;-69
2022/04/14 14:11:30;;;;;;;5.47;1.20;;;;;;;;;;4976781;28;20096;-70
2022/04/14 14:13:55;;;;;;;10.48;1.52;;;;;;;;;;4979747;28;20080;-70
2022/04/14 14:16:22;;;;;;;6.65;1.60;;;;;;;;;;4996114;28;20034;-70
2022/04/14 14:18:47;;;;;;;5.68;1.48;;;;;;;;;;4981608;28;20038;-70
2022/04/14 14:21:12;;;;;;;5.35;1.35;;;;;;;;;;4976544;28;20034;-70
2022/04/14 14:23:38;;;;;;;5.88;1.30;;;;;;;;;;4977327;28;20164;-70
2022/04/14 14:26:04;;;;;;;4.53;1.30;;;;;;;;;;4980106;28;20046;-70
2022/04/14 14:28:30;;;;;;;3.33;1.20;;;;;;;;;;4980116;28;20370;-69
2022/04/14 14:30:55;;;;;;;2.85;1.00;;;;;;;;;;4973192;28;20039;-69
2022/04/14 14:33:21;;;;;;;3.33;1.10;;;;;;;;;;4994469;28;20486;-69
2022/04/14 14:35:46;;;;;;;3.22;1.00;;;;;;;;;;4980109;28;20066;-69
2022/04/14 14:38:12;;;;;;;5.45;1.38;;;;;;;;;;4981270;28;20054;-70
2022/04/14 14:40:37;;;;;;;5.70;1.20;;;;;;;;;;4980811;28;20845;-70
2022/04/14 14:43:02;;;;;;;4.30;1.00;;;;;;;;;;4982885;28;20045;-69